sensor_id;sensor_type;location;lat;lon;timestamp;temperature;humidity
1411;DHT22;700;51.906;8.404;2022-12-11T00:02:28;3.90;99.90
1411;DHT22;700;51.906;8.404;2022-12-11T00:07:28;4.00;99.90
1411;DHT22;700;51.906;8.404;2022-12-11T00:12:30;3.80;99.90
1411;DHT22;700;51.906;8.404;2022-12-11T00:17:30;3.90;99.90
1411;DHT22;700;51.906;8.404;2022-12-11T00:22:31;3.90;99.90
1411;DHT22;700;51.906;8.404;2022-12-11T00:27:34;3.80;99.90
1411;DHT22;700;51.906;8.404;2022-12-11T00:32:35;3.80;99.90
1411;DHT22;700;51.906;8.404;2022-12-11T00:37:35;3.70;99.90
1411;DHT22;700;51.906;8.404;2022-12-11T00:42:36;3.50;99.90
1411;DHT22;700;51.906;8.404;2022-12-11T00:47:36;3.80;99.90
1411;DHT22;700;51.906;8.404;2022-12-11T00:52:37;3.80;99.90
1411;DHT22;700;51.906;8.404;2022-12-11T00:57:38;3.80;99.90
1411;DHT22;700;51.906;8.404;2022-12-11T01:02:39;3.70;99.90
1411;DHT22;700;51.906;8.404;2022-12-11T01:07:40;3.70;99.90
1411;DHT22;700;51.906;8.404;2022-12-11T01:12:43;3.40;99.90
1411;DHT22;700;51.906;8.404;2022-12-11T01:17:44;3.30;99.90
1411;DHT22;700;51.906;8.404;2022-12-11T01:22:50;3.70;99.90
1411;DHT22;700;51.906;8.404;2022-12-11T01:27:54;3.60;99.90
1411;DHT22;700;51.906;8.404;2022-12-11T01:32:55;3.70;99.90
1411;DHT22;700;51.906;8.404;2022-12-11T01:37:56;3.60;99.90
1411;DHT22;700;51.906;8.404;2022-12-11T01:42:56;3.70;99.90
1411;DHT22;700;51.906;8.404;2022-12-11T01:53:09;3.70;99.90
1411;DHT22;700;51.906;8.404;2022-12-11T01:58:10;3.60;99.90
1411;DHT22;700;51.906;8.404;2022-12-11T02:03:11;3.70;99.90
1411;DHT22;700;51.906;8.404;2022-12-11T02:08:12;3.50;99.90
1411;DHT22;700;51.906;8.404;2022-12-11T02:13:23;3.30;99.90
1411;DHT22;700;51.906;8.404;2022-12-11T02:18:40;3.40;99.90
1411;DHT22;700;51.906;8.404;2022-12-11T02:28:54;3.40;99.90
1411;DHT22;700;51.906;8.404;2022-12-11T02:39:15;3.70;99.90
1411;DHT22;700;51.906;8.404;2022-12-11T02:44:21;3.90;99.90
1411;DHT22;700;51.906;8.404;2022-12-11T02:49:24;3.90;99.90
1411;DHT22;700;51.906;8.404;2022-12-11T02:54:29;3.80;99.90
1411;DHT22;700;51.906;8.404;2022-12-11T02:59:57;3.70;99.90
1411;DHT22;700;51.906;8.404;2022-12-11T03:05:00;3.70;99.90
1411;DHT22;700;51.906;8.404;2022-12-11T03:10:02;3.70;99.90
1411;DHT22;700;51.906;8.404;2022-12-11T03:15:07;3.80;99.90
1411;DHT22;700;51.906;8.404;2022-12-11T03:25:52;3.90;99.90
1411;DHT22;700;51.906;8.404;2022-12-11T03:30:53;4.00;99.90
1411;DHT22;700;51.906;8.404;2022-12-11T03:36:00;3.90;99.90
1411;DHT22;700;51.906;8.404;2022-12-11T03:41:09;3.90;99.90
1411;DHT22;700;51.906;8.404;2022-12-11T03:46:14;3.90;99.90
1411;DHT22;700;51.906;8.404;2022-12-11T03:51:16;4.20;99.90
1411;DHT22;700;51.906;8.404;2022-12-11T03:56:19;4.10;99.90
1411;DHT22;700;51.906;8.404;2022-12-11T04:01:24;4.20;99.90
1411;DHT22;700;51.906;8.404;2022-12-11T04:06:24;4.30;99.90
1411;DHT22;700;51.906;8.404;2022-12-11T04:11:27;4.40;99.90
1411;DHT22;700;51.906;8.404;2022-12-11T04:16:36;4.40;99.90
1411;DHT22;700;51.906;8.404;2022-12-11T04:21:40;4.30;99.90
1411;DHT22;700;51.906;8.404;2022-12-11T04:27:01;4.40;99.90
1411;DHT22;700;51.906;8.404;2022-12-11T04:32:02;4.50;99.90
1411;DHT22;700;51.906;8.404;2022-12-11T04:37:03;4.50;99.90
1411;DHT22;700;51.906;8.404;2022-12-11T04:42:03;4.70;99.90
1411;DHT22;700;51.906;8.404;2022-12-11T04:47:04;4.80;99.90
1411;DHT22;700;51.906;8.404;2022-12-11T04:52:08;4.90;99.90
1411;DHT22;700;51.906;8.404;2022-12-11T04:57:09;5.00;99.90
1411;DHT22;700;51.906;8.404;2022-12-11T05:02:12;5.20;99.90
1411;DHT22;700;51.906;8.404;2022-12-11T05:07:13;5.20;99.90
1411;DHT22;700;51.906;8.404;2022-12-11T05:12:15;5.00;99.90
1411;DHT22;700;51.906;8.404;2022-12-11T05:17:19;5.20;99.90
1411;DHT22;700;51.906;8.404;2022-12-11T05:22:20;5.30;99.90
1411;DHT22;700;51.906;8.404;2022-12-11T05:27:20;5.30;99.90
1411;DHT22;700;51.906;8.404;2022-12-11T05:32:23;5.20;99.90
1411;DHT22;700;51.906;8.404;2022-12-11T05:37:26;5.30;99.90
1411;DHT22;700;51.906;8.404;2022-12-11T05:42:29;5.30;99.90
1411;DHT22;700;51.906;8.404;2022-12-11T05:47:30;5.30;99.90
1411;DHT22;700;51.906;8.404;2022-12-11T05:52:31;5.20;99.90
1411;DHT22;700;51.906;8.404;2022-12-11T05:57:32;5.20;99.90
1411;DHT22;700;51.906;8.404;2022-12-11T06:02:36;5.10;99.90
1411;DHT22;700;51.906;8.404;2022-12-11T06:07:38;4.70;99.90
1411;DHT22;700;51.906;8.404;2022-12-11T06:12:39;4.80;99.90
1411;DHT22;700;51.906;8.404;2022-12-11T06:17:44;4.40;99.90
1411;DHT22;700;51.906;8.404;2022-12-11T06:22:45;4.50;99.90
1411;DHT22;700;51.906;8.404;2022-12-11T06:27:45;4.70;99.90
1411;DHT22;700;51.906;8.404;2022-12-11T06:32:46;4.90;99.90
1411;DHT22;700;51.906;8.404;2022-12-11T06:37:47;4.80;99.90
1411;DHT22;700;51.906;8.404;2022-12-11T06:42:52;5.00;99.90
1411;DHT22;700;51.906;8.404;2022-12-11T06:47:55;5.00;99.90
1411;DHT22;700;51.906;8.404;2022-12-11T06:52:58;4.90;99.90
1411;DHT22;700;51.906;8.404;2022-12-11T06:57:58;4.90;99.90
1411;DHT22;700;51.906;8.404;2022-12-11T07:02:59;5.00;99.90
1411;DHT22;700;51.906;8.404;2022-12-11T07:08:02;5.00;99.90
1411;DHT22;700;51.906;8.404;2022-12-11T07:13:06;4.90;99.90
1411;DHT22;700;51.906;8.404;2022-12-11T07:18:09;4.70;99.90
1411;DHT22;700;51.906;8.404;2022-12-11T07:23:12;4.90;99.90
1411;DHT22;700;51.906;8.404;2022-12-11T07:28:13;4.90;99.90
1411;DHT22;700;51.906;8.404;2022-12-11T07:33:13;4.90;99.90
1411;DHT22;700;51.906;8.404;2022-12-11T07:38:15;4.90;99.90
1411;DHT22;700;51.906;8.404;2022-12-11T07:43:16;5.00;99.90
1411;DHT22;700;51.906;8.404;2022-12-11T07:48:17;5.00;99.90
1411;DHT22;700;51.906;8.404;2022-12-11T07:53:20;5.10;99.90
1411;DHT22;700;51.906;8.404;2022-12-11T07:58:23;5.10;99.90
1411;DHT22;700;51.906;8.404;2022-12-11T08:03:23;5.20;99.90
1411;DHT22;700;51.906;8.404;2022-12-11T08:08:24;5.20;99.90
1411;DHT22;700;51.906;8.404;2022-12-11T08:13:27;5.10;99.90
1411;DHT22;700;51.906;8.404;2022-12-11T08:18:28;5.20;99.90
1411;DHT22;700;51.906;8.404;2022-12-11T08:23:32;5.20;99.90
1411;DHT22;700;51.906;8.404;2022-12-11T08:28:33;5.30;99.90
1411;DHT22;700;51.906;8.404;2022-12-11T08:33:35;5.30;99.90
1411;DHT22;700;51.906;8.404;2022-12-11T08:38:39;5.20;99.90
1411;DHT22;700;51.906;8.404;2022-12-11T08:43:40;5.30;99.90
1411;DHT22;700;51.906;8.404;2022-12-11T08:48:43;4.90;99.90
1411;DHT22;700;51.906;8.404;2022-12-11T08:53:43;4.60;99.90
1411;DHT22;700;51.906;8.404;2022-12-11T08:58:45;4.90;99.90
1411;DHT22;700;51.906;8.404;2022-12-11T09:03:49;5.20;99.90
1411;DHT22;700;51.906;8.404;2022-12-11T09:08:51;5.50;99.90
1411;DHT22;700;51.906;8.404;2022-12-11T09:13:53;5.30;99.90
1411;DHT22;700;51.906;8.404;2022-12-11T09:18:57;5.20;99.90
1411;DHT22;700;51.906;8.404;2022-12-11T09:23:59;5.60;99.90
1411;DHT22;700;51.906;8.404;2022-12-11T09:29:02;5.20;99.90
1411;DHT22;700;51.906;8.404;2022-12-11T09:34:06;5.40;99.90
1411;DHT22;700;51.906;8.404;2022-12-11T09:39:08;5.40;99.90
1411;DHT22;700;51.906;8.404;2022-12-11T09:44:18;5.40;99.90
1411;DHT22;700;51.906;8.404;2022-12-11T09:54:23;5.30;99.90
1411;DHT22;700;51.906;8.404;2022-12-11T10:15:39;5.50;99.90
1411;DHT22;700;51.906;8.404;2022-12-11T10:20:43;5.40;99.90
1411;DHT22;700;51.906;8.404;2022-12-11T10:26:03;5.50;99.90
1411;DHT22;700;51.906;8.404;2022-12-11T10:36:47;5.60;99.90
1411;DHT22;700;51.906;8.404;2022-12-11T10:41:49;5.40;99.90
1411;DHT22;700;51.906;8.404;2022-12-11T10:52:30;5.10;99.90
1411;DHT22;700;51.906;8.404;2022-12-11T10:57:33;4.50;99.90
1411;DHT22;700;51.906;8.404;2022-12-11T11:02:37;4.90;99.90
1411;DHT22;700;51.906;8.404;2022-12-11T11:07:43;5.10;99.90
1411;DHT22;700;51.906;8.404;2022-12-11T11:12:46;4.40;99.90
1411;DHT22;700;51.906;8.404;2022-12-11T11:17:55;4.30;99.90
1411;DHT22;700;51.906;8.404;2022-12-11T11:23:07;4.40;99.90
1411;DHT22;700;51.906;8.404;2022-12-11T11:28:18;4.40;99.90
1411;DHT22;700;51.906;8.404;2022-12-11T11:33:21;4.70;99.90
1411;DHT22;700;51.906;8.404;2022-12-11T11:38:27;5.00;99.90
1411;DHT22;700;51.906;8.404;2022-12-11T11:43:47;4.90;99.90
1411;DHT22;700;51.906;8.404;2022-12-11T11:48:58;4.80;99.90
1411;DHT22;700;51.906;8.404;2022-12-11T11:54:02;5.00;99.90
1411;DHT22;700;51.906;8.404;2022-12-11T11:59:13;4.90;99.90
1411;DHT22;700;51.906;8.404;2022-12-11T12:04:16;4.70;99.90
1411;DHT22;700;51.906;8.404;2022-12-11T12:47:14;4.50;99.90
1411;DHT22;700;51.906;8.404;2022-12-11T12:52:36;4.60;99.90
1411;DHT22;700;51.906;8.404;2022-12-11T12:57:59;4.70;99.90
1411;DHT22;700;51.906;8.404;2022-12-11T13:03:17;4.90;99.90
1411;DHT22;700;51.906;8.404;2022-12-11T13:08:37;4.60;99.90
1411;DHT22;700;51.906;8.404;2022-12-11T13:18:45;4.50;99.90
1411;DHT22;700;51.906;8.404;2022-12-11T13:23:46;4.50;99.90
1411;DHT22;700;51.906;8.404;2022-12-11T13:28:56;4.60;99.90
1411;DHT22;700;51.906;8.404;2022-12-11T13:34:06;4.80;99.90
1411;DHT22;700;51.906;8.404;2022-12-11T13:39:17;4.90;99.90
1411;DHT22;700;51.906;8.404;2022-12-11T13:44:23;4.60;99.90
1411;DHT22;700;51.906;8.404;2022-12-11T13:49:28;4.50;99.90
1411;DHT22;700;51.906;8.404;2022-12-11T13:54:35;4.10;99.90
1411;DHT22;700;51.906;8.404;2022-12-11T13:59:40;4.30;99.90
1411;DHT22;700;51.906;8.404;2022-12-11T14:04:44;4.50;99.90
1411;DHT22;700;51.906;8.404;2022-12-11T14:09:45;4.40;99.90
1411;DHT22;700;51.906;8.404;2022-12-11T14:14:50;4.10;99.90
1411;DHT22;700;51.906;8.404;2022-12-11T14:19:57;4.20;99.90
1411;DHT22;700;51.906;8.404;2022-12-11T14:25:00;4.50;99.90
1411;DHT22;700;51.906;8.404;2022-12-11T14:30:10;4.70;99.90
1411;DHT22;700;51.906;8.404;2022-12-11T14:35:31;4.40;99.90
1411;DHT22;700;51.906;8.404;2022-12-11T14:40:40;4.50;99.90
1411;DHT22;700;51.906;8.404;2022-12-11T14:45:43;4.50;99.90
1411;DHT22;700;51.906;8.404;2022-12-11T14:50:51;4.50;99.90
1411;DHT22;700;51.906;8.404;2022-12-11T14:55:53;4.30;99.90
1411;DHT22;700;51.906;8.404;2022-12-11T15:06:01;4.40;99.90
1411;DHT22;700;51.906;8.404;2022-12-11T15:16:06;4.50;99.90
1411;DHT22;700;51.906;8.404;2022-12-11T15:21:14;4.10;99.90
1411;DHT22;700;51.906;8.404;2022-12-11T15:26:16;4.00;99.90
1411;DHT22;700;51.906;8.404;2022-12-11T15:31:26;3.80;99.90
1411;DHT22;700;51.906;8.404;2022-12-11T15:36:35;4.20;99.90
1411;DHT22;700;51.906;8.404;2022-12-11T15:41:36;4.30;99.90
1411;DHT22;700;51.906;8.404;2022-12-11T15:46:41;4.10;99.90
1411;DHT22;700;51.906;8.404;2022-12-11T15:51:44;3.90;99.90
1411;DHT22;700;51.906;8.404;2022-12-11T15:56:47;4.00;99.90
1411;DHT22;700;51.906;8.404;2022-12-11T16:01:48;4.10;99.90
1411;DHT22;700;51.906;8.404;2022-12-11T16:06:50;4.20;99.90
1411;DHT22;700;51.906;8.404;2022-12-11T16:11:50;4.30;99.90
1411;DHT22;700;51.906;8.404;2022-12-11T16:16:51;4.20;99.90
1411;DHT22;700;51.906;8.404;2022-12-11T16:21:52;3.90;99.90
1411;DHT22;700;51.906;8.404;2022-12-11T16:26:52;4.00;99.90
1411;DHT22;700;51.906;8.404;2022-12-11T16:31:55;3.70;99.90
1411;DHT22;700;51.906;8.404;2022-12-11T16:37:03;3.70;99.90
1411;DHT22;700;51.906;8.404;2022-12-11T16:42:05;3.90;99.90
1411;DHT22;700;51.906;8.404;2022-12-11T16:47:05;3.90;99.90
1411;DHT22;700;51.906;8.404;2022-12-11T16:52:06;4.10;99.90
1411;DHT22;700;51.906;8.404;2022-12-11T16:57:09;4.20;99.90
1411;DHT22;700;51.906;8.404;2022-12-11T17:02:13;4.10;99.90
1411;DHT22;700;51.906;8.404;2022-12-11T17:07:14;3.60;99.90
1411;DHT22;700;51.906;8.404;2022-12-11T17:12:15;3.60;99.90
1411;DHT22;700;51.906;8.404;2022-12-11T17:17:20;3.80;99.90
1411;DHT22;700;51.906;8.404;2022-12-11T17:22:21;4.10;99.90
1411;DHT22;700;51.906;8.404;2022-12-11T17:27:27;4.00;99.90
1411;DHT22;700;51.906;8.404;2022-12-11T17:32:27;4.10;99.90
1411;DHT22;700;51.906;8.404;2022-12-11T17:37:30;4.20;99.90
1411;DHT22;700;51.906;8.404;2022-12-11T17:42:33;4.00;99.90
1411;DHT22;700;51.906;8.404;2022-12-11T17:47:36;4.00;99.90
1411;DHT22;700;51.906;8.404;2022-12-11T17:52:37;4.00;99.90
1411;DHT22;700;51.906;8.404;2022-12-11T17:57:41;3.60;99.90
1411;DHT22;700;51.906;8.404;2022-12-11T18:02:41;4.20;99.90
1411;DHT22;700;51.906;8.404;2022-12-11T18:07:42;4.00;99.90
1411;DHT22;700;51.906;8.404;2022-12-11T18:12:45;4.10;99.90
1411;DHT22;700;51.906;8.404;2022-12-11T18:17:46;4.30;99.90
1411;DHT22;700;51.906;8.404;2022-12-11T18:22:51;4.40;99.90
1411;DHT22;700;51.906;8.404;2022-12-11T18:27:55;4.10;99.90
1411;DHT22;700;51.906;8.404;2022-12-11T18:32:56;4.10;99.90
1411;DHT22;700;51.906;8.404;2022-12-11T18:37:56;3.90;99.90
1411;DHT22;700;51.906;8.404;2022-12-11T18:42:57;4.10;99.90
1411;DHT22;700;51.906;8.404;2022-12-11T18:47:58;4.30;99.90
1411;DHT22;700;51.906;8.404;2022-12-11T18:52:58;4.20;99.90
1411;DHT22;700;51.906;8.404;2022-12-11T18:57:59;4.30;99.90
1411;DHT22;700;51.906;8.404;2022-12-11T19:03:05;4.20;99.90
1411;DHT22;700;51.906;8.404;2022-12-11T19:08:06;4.10;99.90
1411;DHT22;700;51.906;8.404;2022-12-11T19:13:07;4.20;99.90
1411;DHT22;700;51.906;8.404;2022-12-11T19:18:10;4.10;99.90
1411;DHT22;700;51.906;8.404;2022-12-11T19:23:11;3.60;99.90
1411;DHT22;700;51.906;8.404;2022-12-11T19:28:12;3.80;99.90
1411;DHT22;700;51.906;8.404;2022-12-11T19:33:15;3.90;99.90
1411;DHT22;700;51.906;8.404;2022-12-11T19:38:18;3.80;99.90
1411;DHT22;700;51.906;8.404;2022-12-11T19:43:21;4.00;99.90
1411;DHT22;700;51.906;8.404;2022-12-11T19:48:22;3.80;99.90
1411;DHT22;700;51.906;8.404;2022-12-11T19:53:25;3.90;99.90
1411;DHT22;700;51.906;8.404;2022-12-11T19:58:25;3.80;99.90
1411;DHT22;700;51.906;8.404;2022-12-11T20:03:26;3.70;99.90
1411;DHT22;700;51.906;8.404;2022-12-11T20:08:27;3.70;99.90
1411;DHT22;700;51.906;8.404;2022-12-11T20:13:28;3.90;99.90
1411;DHT22;700;51.906;8.404;2022-12-11T20:18:29;3.70;99.90
1411;DHT22;700;51.906;8.404;2022-12-11T20:23:30;3.80;99.90
1411;DHT22;700;51.906;8.404;2022-12-11T20:28:31;3.90;99.90
1411;DHT22;700;51.906;8.404;2022-12-11T20:33:32;4.20;99.90
1411;DHT22;700;51.906;8.404;2022-12-11T20:38:35;4.30;99.90
1411;DHT22;700;51.906;8.404;2022-12-11T20:43:39;4.40;99.90
1411;DHT22;700;51.906;8.404;2022-12-11T20:48:43;4.60;99.90
1411;DHT22;700;51.906;8.404;2022-12-11T20:53:47;4.60;99.90
1411;DHT22;700;51.906;8.404;2022-12-11T20:58:58;4.60;99.90
1411;DHT22;700;51.906;8.404;2022-12-11T21:03:58;4.60;99.90
1411;DHT22;700;51.906;8.404;2022-12-11T21:09:05;4.70;99.90
1411;DHT22;700;51.906;8.404;2022-12-11T21:14:08;4.80;99.90
1411;DHT22;700;51.906;8.404;2022-12-11T21:19:11;4.40;99.90
1411;DHT22;700;51.906;8.404;2022-12-11T21:24:26;4.60;99.90
1411;DHT22;700;51.906;8.404;2022-12-11T21:29:30;4.50;99.90
1411;DHT22;700;51.906;8.404;2022-12-11T21:34:31;4.60;99.90
1411;DHT22;700;51.906;8.404;2022-12-11T21:39:34;4.60;99.90
1411;DHT22;700;51.906;8.404;2022-12-11T21:44:37;4.70;99.90
1411;DHT22;700;51.906;8.404;2022-12-11T21:49:37;4.30;99.90
1411;DHT22;700;51.906;8.404;2022-12-11T21:54:38;4.30;99.90
1411;DHT22;700;51.906;8.404;2022-12-11T21:59:39;4.40;99.90
1411;DHT22;700;51.906;8.404;2022-12-11T22:04:40;4.50;99.90
1411;DHT22;700;51.906;8.404;2022-12-11T22:09:43;4.50;99.90
1411;DHT22;700;51.906;8.404;2022-12-11T22:14:43;3.80;99.90
1411;DHT22;700;51.906;8.404;2022-12-11T22:19:44;3.70;99.90
1411;DHT22;700;51.906;8.404;2022-12-11T22:24:45;4.00;99.90
1411;DHT22;700;51.906;8.404;2022-12-11T22:29:46;4.10;99.90
1411;DHT22;700;51.906;8.404;2022-12-11T22:34:51;3.80;99.90
1411;DHT22;700;51.906;8.404;2022-12-11T22:39:55;4.00;99.90
1411;DHT22;700;51.906;8.404;2022-12-11T22:44:56;3.60;99.90
1411;DHT22;700;51.906;8.404;2022-12-11T22:49:59;3.90;99.90
1411;DHT22;700;51.906;8.404;2022-12-11T22:55:02;3.90;99.90
1411;DHT22;700;51.906;8.404;2022-12-11T23:00:11;3.80;99.90
1411;DHT22;700;51.906;8.404;2022-12-11T23:05:16;4.20;99.90
1411;DHT22;700;51.906;8.404;2022-12-11T23:10:16;4.30;99.90
1411;DHT22;700;51.906;8.404;2022-12-11T23:15:20;4.20;99.90
1411;DHT22;700;51.906;8.404;2022-12-11T23:20:20;4.10;99.90
1411;DHT22;700;51.906;8.404;2022-12-11T23:25:21;4.00;99.90
1411;DHT22;700;51.906;8.404;2022-12-11T23:30:24;4.10;99.90
1411;DHT22;700;51.906;8.404;2022-12-11T23:35:25;4.00;99.90
1411;DHT22;700;51.906;8.404;2022-12-11T23:40:27;3.60;99.90
1411;DHT22;700;51.906;8.404;2022-12-11T23:45:30;3.70;99.90
1411;DHT22;700;51.906;8.404;2022-12-11T23:50:31;3.70;99.90
1411;DHT22;700;51.906;8.404;2022-12-11T23:55:32;3.70;99.90
